Time;durP1;ratioP1;P1;durP2;ratioP2;P2;SDS_P1;SDS_P2;PMS_P1;PMS_P2;Temp;Humidity;BMP_temperature;BMP_pressure;BME280_temperature;BME280_humidity;BME280_pressure;Samples;Min_cycle;Max_cycle;Signal;HPM_P1;HPM_P2
2023/08/04 00:00:53;;;;;;;0.73;0.70;;;;;;;16.13;100.00;99681.97;5013449;28;20191;-75
2023/08/04 00:03:18;;;;;;;1.03;0.87;;;;;;;16.09;100.00;99689.09;5014050;28;20246;-74
2023/08/04 00:05:43;;;;;;;1.40;0.90;;;;;;;16.07;100.00;99692.66;5022183;28;20199;-75
2023/08/04 00:08:09;;;;;;;1.00;0.90;;;;;;;16.05;100.00;99689.25;5020949;28;20303;-75
2023/08/04 00:10:34;;;;;;;1.43;0.90;;;;;;;16.03;100.00;99699.78;5017096;28;20278;-76
2023/08/04 00:12:59;;;;;;;1.00;0.90;;;;;;;16.04;100.00;99701.47;5018115;28;20216;-74
2023/08/04 00:15:25;;;;;;;1.20;0.80;;;;;;;16.05;100.00;99697.09;5020741;28;21017;-75
2023/08/04 00:17:50;;;;;;;1.63;1.10;;;;;;;16.04;100.00;99695.41;5021275;28;20188;-75
2023/08/04 00:20:15;;;;;;;1.07;0.97;;;;;;;16.03;100.00;99691.13;5013846;28;20196;-75
2023/08/04 00:22:41;;;;;;;1.47;1.00;;;;;;;16.03;100.00;99691.13;5014081;28;20231;-75
2023/08/04 00:25:07;;;;;;;1.57;0.80;;;;;;;16.03;100.00;99688.50;5015879;28;20203;-75
2023/08/04 00:27:32;;;;;;;0.87;0.70;;;;;;;16.02;100.00;99689.41;5016191;28;20253;-75
2023/08/04 00:29:57;;;;;;;0.90;0.90;;;;;;;15.98;100.00;99688.69;5016439;28;20202;-75
2023/08/04 00:32:23;;;;;;;1.27;1.00;;;;;;;15.97;100.00;99686.97;5020768;28;20183;-75
2023/08/04 00:34:48;;;;;;;1.50;1.00;;;;;;;15.98;100.00;99688.69;5024786;28;20271;-75
2023/08/04 00:37:13;;;;;;;1.37;0.80;;;;;;;15.99;100.00;99690.38;5020120;28;20682;-75
2023/08/04 00:39:39;;;;;;;2.37;1.20;;;;;;;15.99;100.00;99687.75;5022595;28;20301;-74
2023/08/04 00:42:04;;;;;;;1.33;1.17;;;;;;;16.00;100.00;99681.63;5018756;28;20192;-75
2023/08/04 00:44:29;;;;;;;1.20;0.93;;;;;;;15.99;100.00;99679.94;5022272;28;20242;-75
2023/08/04 00:46:55;;;;;;;0.97;0.80;;;;;;;16.00;100.00;99681.63;5024021;28;20290;-75
2023/08/04 00:49:21;;;;;;;1.80;0.97;;;;;;;15.99;100.00;99678.19;5014174;28;20218;-75
2023/08/04 00:51:46;;;;;;;2.23;1.10;;;;;;;16.00;100.00;99679.88;5019505;28;20271;-75
2023/08/04 00:54:12;;;;;;;3.53;1.10;;;;;;;16.03;100.00;99678.91;5020232;28;20634;-75
2023/08/04 00:56:41;;;;;;;1.00;0.90;;;;;;;16.04;100.00;99679.75;5020331;28;20183;-75
2023/08/04 00:59:07;;;;;;;1.27;0.60;;;;;;;16.06;100.00;99680.53;5023392;28;20207;-75
2023/08/04 01:01:32;;;;;;;0.93;0.77;;;;;;;16.07;100.00;99684.84;5024871;28;20971;-74
2023/08/04 01:03:58;;;;;;;1.80;0.80;;;;;;;16.08;100.00;99687.41;5017286;28;20262;-75
2023/08/04 01:06:41;;;;;;;1.07;0.73;;;;;;;16.13;100.00;99681.97;5020359;28;20196;-74
2023/08/04 01:09:15;;;;;;;1.40;0.90;;;;;;;16.14;100.00;99684.53;5021298;28;20272;-76
2023/08/04 01:11:51;;;;;;;1.00;0.80;;;;;;;16.18;100.00;99677.44;5024148;28;20961;-74
2023/08/04 01:14:18;;;;;;;1.97;0.90;;;;;;;16.21;100.00;99674.66;5020530;28;20558;-74
2023/08/04 01:16:44;;;;;;;1.27;0.80;;;;;;;16.25;100.00;99680.63;5018311;28;20191;-74
2023/08/04 01:19:09;;;;;;;2.10;1.10;;;;;;;16.26;100.00;99674.50;5024145;28;20866;-74
2023/08/04 01:21:41;;;;;;;0.80;0.70;;;;;;;16.29;100.00;99675.22;5022191;28;20202;-73
2023/08/04 01:24:07;;;;;;;1.17;1.03;;;;;;;16.31;100.00;99669.91;5022550;28;20207;-75
2023/08/04 01:26:37;;;;;;;0.90;0.80;;;;;;;16.34;100.00;99689.81;5047929;28;20180;-74
2023/08/04 01:29:03;;;;;;;1.17;0.90;;;;;;;16.36;100.00;99678.41;5029350;28;20214;-75
2023/08/04 01:31:29;;;;;;;1.00;0.80;;;;;;;16.38;100.00;99678.31;5023647;28;20194;-74
2023/08/04 01:33:57;;;;;;;1.00;0.83;;;;;;;16.39;100.00;99669.59;5016950;28;20211;-74
2023/08/04 01:36:22;;;;;;;1.40;0.70;;;;;;;16.40;100.00;99668.66;5018336;28;20199;-74
2023/08/04 01:38:48;;;;;;;2.57;0.80;;;;;;;16.41;100.00;99671.19;5018407;28;20256;-75
2023/08/04 01:41:13;;;;;;;1.40;0.83;;;;;;;16.40;100.00;99669.53;5020278;28;20269;-75
2023/08/04 01:43:38;;;;;;;0.80;0.80;;;;;;;16.40;100.00;99671.28;5020778;28;20733;-74
2023/08/04 01:46:03;;;;;;;1.63;0.80;;;;;;;16.39;100.00;99672.19;5016485;28;20199;-75
2023/08/04 01:48:29;;;;;;;1.47;0.83;;;;;;;16.38;100.00;99675.72;5023768;28;20223;-74
2023/08/04 01:50:54;;;;;;;0.90;0.70;;;;;;;16.39;100.00;99678.28;5018868;28;20268;-75
2023/08/04 01:53:19;;;;;;;0.97;0.80;;;;;;;16.41;100.00;99672.97;5021266;28;20782;-74
2023/08/04 01:55:47;;;;;;;1.87;0.80;;;;;;;16.43;100.00;99668.53;5018799;28;20202;-74
2023/08/04 01:58:12;;;;;;;0.67;0.53;;;;;;;16.45;100.00;99674.56;5011453;28;20192;-75
2023/08/04 02:00:38;;;;;;;1.57;0.80;;;;;;;16.45;100.00;99672.78;5017185;28;20250;-75
2023/08/04 02:03:03;;;;;;;1.67;0.80;;;;;;;16.45;100.00;99669.31;5025372;28;20292;-74
2023/08/04 02:05:28;;;;;;;1.00;0.80;;;;;;;16.47;100.00;99677.94;5015531;28;20273;-75
2023/08/04 02:07:54;;;;;;;1.07;0.87;;;;;;;16.48;100.00;99674.41;5017013;28;20302;-75
2023/08/04 02:10:19;;;;;;;1.43;0.77;;;;;;;16.49;100.00;99670.88;5022411;28;20198;-75
2023/08/04 02:12:44;;;;;;;1.47;0.83;;;;;;;16.51;100.00;99676.03;5020729;28;20218;-75
2023/08/04 02:15:10;;;;;;;2.30;0.90;;;;;;;16.52;100.00;99673.34;5020310;28;20295;-76
2023/08/04 02:17:36;;;;;;;1.47;0.80;;;;;;;16.53;100.00;99671.59;5019234;28;20198;-76
2023/08/04 02:20:01;;;;;;;0.63;0.63;;;;;;;16.54;100.00;99673.31;5020668;28;20188;-75
2023/08/04 02:22:27;;;;;;;2.40;0.87;;;;;;;16.55;100.00;99667.16;5025026;28;20191;-75
2023/08/04 02:24:52;;;;;;;1.97;0.77;;;;;;;16.56;100.00;99674.09;5017747;28;20197;-75
2023/08/04 02:27:17;;;;;;;1.53;0.73;;;;;;;16.56;100.00;99672.31;5016015;28;20210;-75
2023/08/04 02:29:43;;;;;;;2.83;1.00;;;;;;;16.58;100.00;99685.28;5014652;28;20259;-74
2023/08/04 02:32:08;;;;;;;1.43;0.93;;;;;;;16.60;100.00;99680.84;5021259;28;20210;-77
2023/08/04 02:34:36;;;;;;;1.03;0.80;;;;;;;16.61;100.00;99685.16;5020929;28;20218;-74
2023/08/04 02:37:02;;;;;;;1.63;1.00;;;;;;;16.58;100.00;99683.53;5024614;28;20196;-74
2023/08/04 02:39:27;;;;;;;1.53;0.80;;;;;;;16.59;100.00;99685.25;5032030;28;20776;-77
2023/08/04 02:41:57;;;;;;;1.37;0.80;;;;;;;16.57;100.00;99680.97;5019636;28;20200;-74
2023/08/04 02:44:22;;;;;;;1.77;1.13;;;;;;;16.52;100.00;99673.34;5017035;28;20306;-74
2023/08/04 02:46:48;;;;;;;1.63;1.00;;;;;;;16.48;100.00;99681.41;5013669;28;20285;-74
2023/08/04 02:49:13;;;;;;;1.13;0.80;;;;;;;16.45;100.00;99692.84;5015043;28;20302;-74
2023/08/04 02:51:38;;;;;;;1.63;0.77;;;;;;;16.43;100.00;99694.66;5017239;28;20195;-74
2023/08/04 02:54:04;;;;;;;1.17;0.93;;;;;;;16.43;100.00;99690.25;5021107;28;20204;-74
2023/08/04 02:56:29;;;;;;;1.50;1.17;;;;;;;16.42;100.00;99691.19;5015533;28;20195;-74
2023/08/04 02:58:54;;;;;;;2.87;0.90;;;;;;;16.41;100.00;99680.81;5017789;28;20223;-74
2023/08/04 03:01:19;;;;;;;1.53;0.90;;;;;;;16.39;100.00;99690.47;5021177;28;20197;-74
2023/08/04 03:03:45;;;;;;;2.43;1.00;;;;;;;16.38;100.00;99688.78;5014575;28;20691;-74
2023/08/04 03:06:10;;;;;;;1.20;0.73;;;;;;;16.37;100.00;99698.38;5014327;28;20184;-74
2023/08/04 03:08:36;;;;;;;2.73;1.00;;;;;;;16.37;100.00;99689.69;5023603;28;20858;-74
2023/08/04 03:11:07;;;;;;;2.80;0.97;;;;;;;16.35;100.00;99694.13;5016533;28;20176;-74
2023/08/04 03:13:32;;;;;;;2.20;1.20;;;;;;;16.36;100.00;99691.47;5019607;28;20234;-74
2023/08/04 03:16:00;;;;;;;1.20;0.93;;;;;;;16.35;100.00;99689.75;5021388;28;20652;-75
2023/08/04 03:18:25;;;;;;;2.00;0.97;;;;;;;16.35;100.00;99691.50;5020205;28;20195;-76
2023/08/04 03:20:51;;;;;;;3.33;1.00;;;;;;;16.33;100.00;99694.19;5019751;28;20245;-75
2023/08/04 03:23:17;;;;;;;0.97;0.83;;;;;;;16.34;100.00;99697.63;5018523;28;20701;-75
2023/08/04 03:25:43;;;;;;;1.80;1.07;;;;;;;16.36;100.00;99701.91;5025139;28;20185;-75
2023/08/04 03:28:08;;;;;;;1.27;0.90;;;;;;;16.36;100.00;99691.47;5036840;28;20212;-75
2023/08/04 03:30:34;;;;;;;3.27;1.00;;;;;;;16.38;100.00;99696.59;5022249;28;20606;-75
2023/08/04 03:32:59;;;;;;;3.33;1.30;;;;;;;16.35;100.00;99700.19;5019525;28;20223;-75
2023/08/04 03:35:24;;;;;;;1.80;1.30;;;;;;;16.33;100.00;99701.19;5016661;28;20745;-75
2023/08/04 03:37:50;;;;;;;1.10;1.00;;;;;;;16.34;100.00;99705.47;5019990;28;20746;-74
2023/08/04 03:40:15;;;;;;;1.50;1.00;;;;;;;16.36;100.00;99719.31;5014621;28;20203;-74
2023/08/04 03:42:43;;;;;;;2.27;1.13;;;;;;;16.36;100.00;99717.56;5017406;28;20224;-75
2023/08/04 03:45:09;;;;;;;4.23;1.27;;;;;;;16.39;100.00;99721.81;5015946;28;20195;-75
2023/08/04 03:47:34;;;;;;;2.13;1.30;;;;;;;16.36;100.00;99717.56;5018289;28;20214;-75
2023/08/04 03:50:06;;;;;;;2.20;1.17;;;;;;;16.35;100.00;99720.22;5017992;28;20334;-75
2023/08/04 03:52:32;;;;;;;1.50;1.10;;;;;;;16.33;100.00;99722.91;5016552;28;20620;-75
2023/08/04 03:55:00;;;;;;;1.20;1.00;;;;;;;16.32;100.00;99726.44;5014529;28;20191;-75
2023/08/04 03:57:26;;;;;;;1.97;1.30;;;;;;;16.30;100.00;99721.28;5016875;28;20204;-74
2023/08/04 03:59:53;;;;;;;1.57;0.90;;;;;;;16.32;100.00;99720.38;5013100;28;20200;-75
2023/08/04 04:02:19;;;;;;;2.60;0.83;;;;;;;16.31;100.00;99727.34;5018338;28;20202;-75
2023/08/04 04:04:47;;;;;;;4.10;1.13;;;;;;;16.33;100.00;99727.31;5017940;28;20444;-74
2023/08/04 04:07:13;;;;;;;1.40;1.03;;;;;;;16.32;100.00;99733.44;5016557;28;20187;-75
2023/08/04 04:09:38;;;;;;;2.20;1.30;;;;;;;16.32;100.00;99733.44;5020140;28;20190;-74
2023/08/04 04:12:04;;;;;;;3.07;1.37;;;;;;;16.30;100.00;99736.09;5020945;28;20576;-75
2023/08/04 04:14:29;;;;;;;3.73;1.60;;;;;;;16.26;100.00;99735.38;5025853;28;20235;-76
2023/08/04 04:16:56;;;;;;;1.73;1.10;;;;;;;16.24;100.00;99734.59;5018131;28;20192;-75
2023/08/04 04:19:21;;;;;;;2.20;1.40;;;;;;;16.23;100.00;99734.66;5011218;28;20188;-75
2023/08/04 04:21:46;;;;;;;1.67;1.03;;;;;;;16.21;100.00;99732.09;5023625;28;20202;-75
2023/08/04 04:24:12;;;;;;;1.77;1.20;;;;;;;16.22;100.00;99735.56;5023691;28;20312;-75
2023/08/04 04:26:37;;;;;;;1.37;1.00;;;;;;;16.23;100.00;99742.50;5018869;28;20195;-75
2023/08/04 04:29:02;;;;;;;1.60;0.90;;;;;;;16.22;100.00;99739.03;5028257;28;20218;-73
2023/08/04 04:31:28;;;;;;;1.83;1.10;;;;;;;16.23;100.00;99738.13;5017935;28;20192;-74
2023/08/04 04:33:53;;;;;;;1.70;0.90;;;;;;;16.26;100.00;99734.53;5022703;28;20203;-74
2023/08/04 04:36:18;;;;;;;0.97;0.80;;;;;;;16.28;100.00;99736.16;5024582;28;20201;-74
2023/08/04 04:38:43;;;;;;;1.90;1.00;;;;;;;16.32;100.00;99738.66;5022849;28;20241;-75
2023/08/04 04:41:12;;;;;;;2.00;1.20;;;;;;;16.36;100.00;99740.22;5010143;28;20225;-75
2023/08/04 04:43:37;;;;;;;1.50;0.93;;;;;;;16.38;100.00;99739.25;5023876;28;20219;-74
2023/08/04 04:46:03;;;;;;;0.97;0.87;;;;;;;16.41;100.00;99746.09;5020388;28;20282;-74
2023/08/04 04:48:29;;;;;;;1.57;1.00;;;;;;;16.42;100.00;99751.25;5018423;28;20216;-75
2023/08/04 04:50:54;;;;;;;1.37;1.13;;;;;;;16.41;100.00;99744.31;5015802;28;20195;-74
2023/08/04 04:53:19;;;;;;;1.33;0.90;;;;;;;16.41;100.00;99752.16;5017711;28;20257;-73
2023/08/04 04:55:48;;;;;;;1.23;1.00;;;;;;;16.44;100.00;99752.03;5018025;28;20195;-74
2023/08/04 04:58:14;;;;;;;1.43;1.10;;;;;;;16.45;100.00;99750.28;5020263;28;20265;-74
2023/08/04 05:00:39;;;;;;;2.63;1.00;;;;;;;16.46;100.00;99759.81;5017640;28;20229;-75
2023/08/04 05:03:06;;;;;;;1.63;1.17;;;;;;;16.48;100.00;99751.91;5016787;28;20296;-75
2023/08/04 05:05:32;;;;;;;1.80;1.07;;;;;;;16.46;100.00;99755.44;5017174;28;20200;-74
2023/08/04 05:07:57;;;;;;;1.37;0.87;;;;;;;16.48;100.00;99754.53;5018438;28;20225;-75
2023/08/04 05:10:23;;;;;;;1.83;1.20;;;;;;;16.48;100.00;99759.75;5019077;28;20189;-74
2023/08/04 05:12:48;;;;;;;1.67;1.27;;;;;;;16.46;100.00;99760.66;5022457;28;20211;-74
2023/08/04 05:15:13;;;;;;;2.10;1.10;;;;;;;16.48;100.00;99759.75;5017962;28;20249;-74
2023/08/04 05:17:39;;;;;;;1.00;0.90;;;;;;;16.48;100.00;99768.44;5017648;28;20664;-74
2023/08/04 05:20:06;;;;;;;1.10;1.00;;;;;;;16.49;100.00;99766.66;5025581;28;20271;-77
2023/08/04 05:22:31;;;;;;;1.90;1.00;;;;;;;16.49;100.00;99767.50;5020049;28;20274;-76
2023/08/04 05:24:56;;;;;;;1.20;1.10;;;;;;;16.51;100.00;99762.25;5015548;28;20279;-75
2023/08/04 05:27:22;;;;;;;2.00;1.20;;;;;;;16.53;100.00;99765.63;5022613;28;20270;-75
2023/08/04 05:29:47;;;;;;;1.37;1.20;;;;;;;16.55;100.00;99775.09;5024857;28;20239;-76
2023/08/04 05:32:12;;;;;;;1.20;1.10;;;;;;;16.57;100.00;99777.63;5025386;28;20269;-75
2023/08/04 05:34:38;;;;;;;2.13;1.20;;;;;;;16.59;100.00;99781.03;5027141;28;20684;-75
2023/08/04 05:37:03;;;;;;;2.03;1.10;;;;;;;16.60;100.00;99772.28;5021565;28;21529;-76
2023/08/04 05:39:29;;;;;;;2.93;1.60;;;;;;;16.60;100.00;99772.28;5022907;28;20218;-76
2023/08/04 05:41:54;;;;;;;2.20;1.10;;;;;;;16.63;100.00;99773.94;5021541;28;20192;-77
2023/08/04 05:44:22;;;;;;;1.50;1.40;;;;;;;16.67;100.00;99781.56;5021012;28;20204;-77
2023/08/04 05:46:50;;;;;;;1.77;1.00;;;;;;;16.73;100.00;99781.28;5019476;28;20191;-78
2023/08/04 05:49:16;;;;;;;1.30;1.10;;;;;;;16.80;100.00;99775.81;5035805;28;20239;-77
2023/08/04 05:51:41;;;;;;;1.23;0.90;;;;;;;16.86;100.00;99780.78;5027479;28;20191;-78
2023/08/04 05:54:06;;;;;;;2.90;1.20;;;;;;;16.93;100.00;99784.81;5027080;28;20211;-77
2023/08/04 05:56:31;;;;;;;2.40;1.40;;;;;;;16.94;100.00;99780.47;5020345;28;20917;-77
2023/08/04 05:58:57;;;;;;;1.83;1.30;;;;;;;16.97;100.00;99783.81;5019192;28;20179;-76
2023/08/04 06:01:23;;;;;;;1.47;1.10;;;;;;;17.05;100.00;99791.31;5021417;28;20192;-77
2023/08/04 06:03:48;;;;;;;1.87;0.90;;;;;;;17.10;100.00;99786.72;5021836;28;20628;-77
2023/08/04 06:06:13;;;;;;;1.63;1.30;;;;;;;17.14;100.00;99792.69;5019482;28;20188;-76
2023/08/04 06:08:39;;;;;;;1.10;1.00;;;;;;;17.19;100.00;99790.69;5025255;28;20211;-77
2023/08/04 06:11:04;;;;;;;1.50;1.00;;;;;;;17.21;100.00;99787.13;5020849;28;20299;-76
2023/08/04 06:13:29;;;;;;;1.03;0.90;;;;;;;17.26;100.00;99781.66;5018987;28;20280;-76
2023/08/04 06:15:55;;;;;;;1.37;0.90;;;;;;;17.35;100.00;99791.72;5014720;28;20188;-76
2023/08/04 06:18:20;;;;;;;2.63;1.10;;;;;;;17.44;100.00;99793.06;5021064;28;20195;-78
2023/08/04 06:20:50;;;;;;;1.10;0.80;;;;;;;17.54;100.00;99790.88;5013806;28;20198;-78
2023/08/04 06:23:18;;;;;;;1.33;0.90;;;;;;;17.62;100.00;99796.59;5009880;28;20678;-78
2023/08/04 06:25:44;;;;;;;0.90;0.90;;;;;;;17.69;100.00;99794.56;5015179;28;20643;-76
2023/08/04 06:28:09;;;;;;;1.20;1.10;;;;;;;17.76;100.00;99793.34;5024470;28;20241;-76
2023/08/04 06:30:34;;;;;;;1.43;1.20;;;;;;;17.82;100.00;99798.31;5016604;28;20186;-77
2023/08/04 06:33:00;;;;;;;5.40;2.57;;;;;;;17.93;100.00;99791.69;5026680;28;20212;-76
2023/08/04 06:35:25;;;;;;;2.60;1.27;;;;;;;18.10;100.00;99799.63;5017911;28;20335;-76
2023/08/04 06:37:51;;;;;;;1.33;1.10;;;;;;;18.33;100.00;99794.19;5024037;28;20202;-76
2023/08/04 06:40:17;;;;;;;2.57;1.17;;;;;;;18.56;100.00;99806.16;5014222;28;20187;-77
2023/08/04 06:42:42;;;;;;;1.73;1.20;;;;;;;18.74;100.00;99799.13;5017235;28;20293;-76
2023/08/04 06:45:08;;;;;;;1.80;0.90;;;;;;;18.86;100.00;99805.53;5021058;28;20187;-75
2023/08/04 06:47:33;;;;;;;1.57;1.00;;;;;;;19.11;100.00;99797.28;5013051;28;20689;-77
2023/08/04 06:49:58;;;;;;;3.00;0.90;;;;;;;19.73;100.00;99804.47;5019025;28;20267;-76
2023/08/04 06:52:27;;;;;;;0.90;0.80;;;;;;;20.31;100.00;99807.41;5016247;28;20199;-76
2023/08/04 06:54:53;;;;;;;1.70;1.00;;;;;;;20.75;100.00;99804.91;5025009;28;20206;-76
2023/08/04 06:57:19;;;;;;;0.90;0.80;;;;;;;20.91;100.00;99808.34;5021517;28;20192;-76
2023/08/04 06:59:47;;;;;;;2.40;1.00;;;;;;;20.77;100.00;99797.81;5022343;28;20188;-76
2023/08/04 07:02:12;;;;;;;2.37;1.17;;;;;;;20.70;100.00;99805.19;5017568;28;20266;-76
2023/08/04 07:04:37;;;;;;;1.47;0.90;;;;;;;20.59;100.00;99803.19;5020371;28;20345;-77
2023/08/04 07:07:03;;;;;;;1.33;0.70;;;;;;;20.65;100.00;99807.22;5024176;28;20180;-77
2023/08/04 07:09:28;;;;;;;3.87;1.00;;;;;;;20.65;100.00;99813.31;5023470;28;20552;-76
2023/08/04 07:11:56;;;;;;;1.10;0.90;;;;;;;20.76;100.00;99811.91;5016541;28;20203;-77
2023/08/04 07:14:22;;;;;;;0.97;0.77;;;;;;;20.83;100.00;99810.56;5018792;28;20258;-76
2023/08/04 07:16:47;;;;;;;2.20;1.13;;;;;;;20.95;100.00;99811.63;5018624;28;20184;-76
2023/08/04 07:19:16;;;;;;;1.20;0.70;;;;;;;21.02;100.00;99813.81;5023833;28;20184;-77
2023/08/04 07:21:42;;;;;;;2.33;0.90;;;;;;;21.05;100.00;99819.81;5013983;28;20265;-77
2023/08/04 07:24:09;;;;;;;2.17;1.00;;;;;;;20.98;100.00;99816.72;5020145;28;20330;-76
2023/08/04 07:26:34;;;;;;;0.90;0.80;;;;;;;21.00;100.00;99813.03;5025892;28;20191;-76
2023/08/04 07:29:00;;;;;;;1.40;0.90;;;;;;;21.04;100.00;99824.22;5016327;28;20877;-76
2023/08/04 07:31:25;;;;;;;1.23;0.80;;;;;;;20.93;100.00;99827.53;5031205;28;20192;-78
2023/08/04 07:33:51;;;;;;;1.63;1.00;;;;;;;20.85;100.00;99827.13;5039813;28;20290;-76
2023/08/04 07:36:16;;;;;;;1.40;0.97;;;;;;;20.80;100.00;99822.13;5016054;28;20188;-76
2023/08/04 07:38:42;;;;;;;1.17;0.80;;;;;;;20.75;100.00;99820.69;5018391;28;20257;-77
2023/08/04 07:41:07;;;;;;;1.83;1.00;;;;;;;20.71;100.00;99825.28;5015260;28;20198;-77
2023/08/04 07:43:35;;;;;;;2.00;1.07;;;;;;;20.66;100.00;99833.41;5021567;28;20212;-77
2023/08/04 07:46:01;;;;;;;1.40;0.90;;;;;;;20.65;100.00;99829.09;5018452;28;20191;-77
2023/08/04 07:48:26;;;;;;;1.30;0.90;;;;;;;20.68;100.00;99835.97;5014489;28;20216;-77
2023/08/04 07:50:52;;;;;;;1.57;1.00;;;;;;;20.71;100.00;99831.38;5016227;28;20636;-78
2023/08/04 07:53:18;;;;;;;1.07;0.77;;;;;;;20.79;100.00;99830.13;5024152;28;20207;-76
2023/08/04 07:55:57;;;;;;;1.33;0.90;;;;;;;20.83;100.00;99827.22;5015871;28;20614;-76
2023/08/04 07:58:23;;;;;;;2.17;0.97;;;;;;;20.84;100.00;99833.31;5016279;28;20252;-77
2023/08/04 08:00:48;;;;;;;1.57;1.00;;;;;;;20.90;100.00;99826.84;5015878;28;20191;-77
2023/08/04 08:03:14;;;;;;;1.80;1.00;;;;;;;20.82;100.00;99828.16;5023954;28;20203;-78
2023/08/04 08:05:39;;;;;;;1.50;1.00;;;;;;;20.74;100.00;99832.97;5026504;28;20188;-77
2023/08/04 08:08:08;;;;;;;1.77;0.87;;;;;;;20.74;100.00;99835.59;5014879;28;20242;-76
2023/08/04 08:10:34;;;;;;;1.07;0.87;;;;;;;20.74;100.00;99827.72;5014883;28;20734;-77
2023/08/04 08:12:59;;;;;;;1.50;0.87;;;;;;;20.78;100.00;99836.31;5020113;28;20218;-77
2023/08/04 08:15:25;;;;;;;2.03;1.00;;;;;;;20.84;100.00;99838.56;5017001;28;20194;-76
2023/08/04 08:17:50;;;;;;;1.63;1.10;;;;;;;20.94;100.00;99833.63;5017815;28;20282;-77
2023/08/04 08:20:15;;;;;;;2.10;1.00;;;;;;;21.10;100.00;99836.19;5013008;28;20242;-77
2023/08/04 08:22:41;;;;;;;1.60;1.13;;;;;;;21.25;100.00;99835.22;5018697;28;20257;-78
2023/08/04 08:25:06;;;;;;;1.00;0.70;;;;;;;21.38;100.00;99843.22;5015300;28;20605;-77
2023/08/04 08:27:32;;;;;;;1.00;0.87;;;;;;;21.52;100.00;99845.03;5017386;28;20180;-77
2023/08/04 08:29:57;;;;;;;1.77;1.00;;;;;;;21.62;100.00;99837.44;5019869;28;20267;-77
2023/08/04 08:32:22;;;;;;;2.13;0.80;;;;;;;21.68;100.00;99839.66;5018877;28;20187;-76
2023/08/04 08:34:48;;;;;;;1.10;0.70;;;;;;;21.62;100.00;99843.53;5017215;28;20187;-77
2023/08/04 08:37:14;;;;;;;1.63;0.70;;;;;;;21.52;100.00;99850.28;5015843;28;20184;-77
2023/08/04 08:39:39;;;;;;;1.70;1.07;;;;;;;21.44;100.00;99840.25;5013408;28;21022;-76
2023/08/04 08:42:04;;;;;;;1.90;1.00;;;;;;;21.46;100.00;99851.53;5020412;28;20195;-76
2023/08/04 08:44:30;;;;;;;1.30;0.90;;;;;;;21.47;100.00;99849.72;5020994;28;20209;-76
2023/08/04 08:46:55;;;;;;;1.87;0.70;;;;;;;21.48;100.00;99844.34;5019058;28;20195;-76
2023/08/04 08:49:27;;;;;;;1.77;1.00;;;;;;;21.51;100.00;99845.97;5013707;28;20270;-75
2023/08/04 08:51:56;;;;;;;3.23;0.87;;;;;;;21.53;100.00;99848.50;5019926;28;20185;-76
2023/08/04 08:54:22;;;;;;;1.37;0.97;;;;;;;21.54;100.00;99843.16;5015247;28;20210;-77
2023/08/04 08:56:47;;;;;;;1.53;0.97;;;;;;;21.58;100.00;99843.78;5016133;28;20185;-76
2023/08/04 08:59:13;;;;;;;1.50;1.10;;;;;;;21.65;100.00;99839.03;5017114;28;20173;-78
2023/08/04 09:01:38;;;;;;;1.37;0.90;;;;;;;21.74;100.00;99841.06;5014706;28;20547;-77
2023/08/04 09:04:05;;;;;;;2.00;1.20;;;;;;;21.49;100.00;99842.56;5016557;28;20603;-76
2023/08/04 09:06:30;;;;;;;1.90;0.80;;;;;;;21.21;100.00;99835.50;5018696;28;20192;-75
2023/08/04 09:08:58;;;;;;;3.17;1.10;;;;;;;21.31;100.00;99839.31;5015546;28;20218;-75
2023/08/04 09:11:24;;;;;;;1.33;0.90;;;;;;;21.43;100.00;99843.81;5021852;28;20223;-75
2023/08/04 09:13:49;;;;;;;1.13;0.90;;;;;;;21.48;100.00;99841.72;5015720;28;20291;-76
2023/08/04 09:16:15;;;;;;;1.83;1.07;;;;;;;21.32;100.00;99839.19;5015235;28;20199;-75
2023/08/04 09:18:44;;;;;;;1.43;0.83;;;;;;;21.19;100.00;99840.88;5019158;28;20187;-77
2023/08/04 09:21:13;;;;;;;0.80;0.80;;;;;;;21.20;100.00;99841.72;5013800;28;20195;-76
2023/08/04 09:23:52;;;;;;;3.50;1.20;;;;;;;21.08;100.00;99843.31;5021433;28;20687;-78
2023/08/04 09:26:18;;;;;;;1.43;0.97;;;;;;;21.08;100.00;99845.97;5014816;28;20615;-77
2023/08/04 09:28:43;;;;;;;1.30;0.90;;;;;;;21.12;100.00;99845.69;5018800;28;20215;-78
2023/08/04 09:31:10;;;;;;;2.03;0.80;;;;;;;21.14;100.00;99843.81;5015950;28;20262;-78
2023/08/04 09:33:41;;;;;;;0.90;0.80;;;;;;;21.19;100.00;99840.88;5038266;28;20230;-80
2023/08/04 09:36:10;;;;;;;1.60;0.70;;;;;;;21.27;100.00;99843.88;5043745;28;20243;-75
2023/08/04 09:38:39;;;;;;;1.80;0.83;;;;;;;21.38;100.00;99843.22;5022399;28;20191;-76
2023/08/04 09:41:12;;;;;;;1.77;1.00;;;;;;;21.58;100.00;99847.25;5022205;28;20180;-76
2023/08/04 09:43:49;;;;;;;3.73;1.10;;;;;;;21.67;100.00;99845.88;5027590;28;20233;-76
2023/08/04 09:46:16;;;;;;;1.10;0.70;;;;;;;21.73;98.42;99847.28;5018301;28;20191;-76
2023/08/04 09:48:42;;;;;;;1.80;1.00;;;;;;;22.00;98.95;99843.88;5021025;28;20234;-76
2023/08/04 09:51:12;;;;;;;0.90;0.70;;;;;;;22.24;98.54;99854.59;5014422;28;20657;-76
2023/08/04 09:53:44;;;;;;;1.40;0.77;;;;;;;22.21;97.43;99847.72;5018168;28;20286;-77
2023/08/04 09:56:27;;;;;;;2.73;1.10;;;;;;;22.11;98.62;99854.56;5024232;28;20219;-76
2023/08/04 09:58:52;;;;;;;1.87;1.17;;;;;;;22.08;99.73;99854.75;5016835;28;20183;-77
2023/08/04 10:01:18;;;;;;;2.67;1.00;;;;;;;22.21;100.00;99855.63;5020672;28;20685;-76
2023/08/04 10:03:54;;;;;;;1.93;1.10;;;;;;;22.36;100.00;99868.75;5018949;28;20211;-76
2023/08/04 10:06:20;;;;;;;1.40;0.90;;;;;;;22.61;100.00;99860.13;5020302;28;20182;-76
2023/08/04 10:08:48;;;;;;;1.57;0.90;;;;;;;22.84;100.00;99858.59;5011737;28;20207;-78
2023/08/04 10:11:13;;;;;;;1.73;1.10;;;;;;;23.10;100.00;99863.88;5015642;28;20223;-76
2023/08/04 10:13:45;;;;;;;2.00;0.70;;;;;;;23.05;96.81;99862.50;5021727;28;20250;-76
2023/08/04 10:16:12;;;;;;;1.33;0.70;;;;;;;22.81;99.55;99858.78;5018553;28;20195;-76
2023/08/04 10:18:53;;;;;;;1.53;0.70;;;;;;;23.17;97.60;99860.84;5018165;28;20184;-77
2023/08/04 10:21:32;;;;;;;0.80;0.40;;;;;;;23.41;94.62;99861.78;5020082;28;20620;-77
2023/08/04 10:23:59;;;;;;;1.23;0.47;;;;;;;23.47;91.91;99863.16;5016516;28;20204;-76
2023/08/04 10:26:25;;;;;;;0.93;0.67;;;;;;;23.29;91.73;99862.66;5018746;28;20209;-76
2023/08/04 10:29:09;;;;;;;2.07;1.87;;;;;;;21.71;100.00;99884.25;5017548;28;20223;-77
2023/08/04 10:31:56;;;;;;;2.83;2.17;;;;;;;20.89;100.00;99880.38;5012074;28;20741;-75
2023/08/04 10:34:26;;;;;;;2.43;2.23;;;;;;;21.23;100.00;99876.59;5014715;28;20727;-77
2023/08/04 10:37:01;;;;;;;4.07;2.90;;;;;;;20.48;100.00;99887.06;5015523;28;20590;-75
2023/08/04 10:39:34;;;;;;;2.73;2.53;;;;;;;20.40;100.00;99883.09;5023075;28;20682;-76
2023/08/04 10:42:03;;;;;;;2.73;2.53;;;;;;;19.82;100.00;99886.28;5017806;28;20238;-76
2023/08/04 10:44:48;;;;;;;2.97;2.70;;;;;;;20.01;100.00;99889.66;5018315;28;20203;-77
2023/08/04 10:47:14;;;;;;;3.60;3.30;;;;;;;19.59;100.00;99890.97;5023894;28;20676;-76
2023/08/04 10:49:40;;;;;;;2.73;2.53;;;;;;;19.56;100.00;99885.91;5025008;28;20226;-76
2023/08/04 10:52:05;;;;;;;2.97;2.77;;;;;;;19.74;100.00;99895.41;5024645;28;20210;-77
2023/08/04 10:54:31;;;;;;;2.70;2.50;;;;;;;19.73;100.00;99892.88;5019420;28;20224;-77
2023/08/04 10:56:56;;;;;;;2.60;2.40;;;;;;;19.01;100.00;99898.31;5014364;28;20271;-76
2023/08/04 10:59:21;;;;;;;2.40;2.30;;;;;;;19.14;100.00;99885.44;5007476;28;20200;-77
2023/08/04 11:01:51;;;;;;;2.20;2.00;;;;;;;19.17;100.00;99886.13;5023857;28;20659;-76
2023/08/04 11:04:19;;;;;;;2.27;2.00;;;;;;;19.05;100.00;99902.47;5013822;28;20222;-76
2023/08/04 11:06:45;;;;;;;2.00;1.90;;;;;;;18.95;100.00;99911.75;5019930;28;20648;-75
2023/08/04 11:09:10;;;;;;;2.00;1.80;;;;;;;19.06;100.00;99912.06;5018817;28;20301;-77
2023/08/04 11:11:36;;;;;;;3.37;1.97;;;;;;;19.23;100.00;99916.44;5016264;28;20192;-77
2023/08/04 11:14:06;;;;;;;2.40;2.20;;;;;;;19.24;100.00;99914.66;5018459;28;20211;-76
2023/08/04 11:16:34;;;;;;;4.07;2.37;;;;;;;19.15;100.00;99913.38;5018742;28;20188;-76
2023/08/04 11:18:59;;;;;;;3.17;2.00;;;;;;;19.17;100.00;99922.84;5025489;28;20255;-75
2023/08/04 11:21:24;;;;;;;2.03;1.93;;;;;;;19.17;100.00;99922.84;5023556;28;20277;-75
2023/08/04 11:23:50;;;;;;;2.87;2.10;;;;;;;19.19;100.00;99920.16;5015423;28;20214;-76